sensor_id;sensor_type;location;lat;lon;timestamp;pressure;altitude;pressure_sealevel;temperature;humidity
53719;BME280;39616;48.872;9.390;2023-10-08T00:02:11;99189.50;;;11.61;92.17
53719;BME280;39616;48.872;9.390;2023-10-08T00:04:53;99184.59;;;11.63;91.20
53719;BME280;39616;48.872;9.390;2023-10-08T00:07:24;99179.69;;;11.65;90.75
53719;BME280;39616;48.872;9.390;2023-10-08T00:09:55;99173.69;;;11.68;90.80
53719;BME280;39616;48.872;9.390;2023-10-08T00:12:25;99184.00;;;11.71;92.42
53719;BME280;39616;48.872;9.390;2023-10-08T00:14:55;99186.44;;;11.73;93.57
53719;BME280;39616;48.872;9.390;2023-10-08T00:17:29;99180.69;;;11.74;93.47
53719;BME280;39616;48.872;9.390;2023-10-08T00:20:01;99168.22;;;11.73;94.24
53719;BME280;39616;48.872;9.390;2023-10-08T00:22:33;99168.22;;;11.73;95.63
53719;BME280;39616;48.872;9.390;2023-10-08T00:25:06;99173.41;;;11.70;94.09
53719;BME280;39616;48.872;9.390;2023-10-08T00:27:41;99160.63;;;11.70;94.68
53719;BME280;39616;48.872;9.390;2023-10-08T00:30:12;99160.63;;;11.70;95.62
53719;BME280;39616;48.872;9.390;2023-10-08T00:32:47;99153.88;;;11.68;95.22
53719;BME280;39616;48.872;9.390;2023-10-08T00:35:18;99156.84;;;11.66;95.94
53719;BME280;39616;48.872;9.390;2023-10-08T00:37:50;99150.91;;;11.64;90.80
53719;BME280;39616;48.872;9.390;2023-10-08T00:40:21;99152.69;;;11.79;86.61
53719;BME280;39616;48.872;9.390;2023-10-08T00:42:51;99154.69;;;12.02;82.97
53719;BME280;39616;48.872;9.390;2023-10-08T00:45:26;99145.75;;;12.26;81.11
53719;BME280;39616;48.872;9.390;2023-10-08T00:48:00;99146.38;;;12.47;78.29
53719;BME280;39616;48.872;9.390;2023-10-08T00:50:30;99142.22;;;12.54;77.30
53719;BME280;39616;48.872;9.390;2023-10-08T00:53:12;99140.19;;;12.65;76.53
53719;BME280;39616;48.872;9.390;2023-10-08T00:55:51;99138.16;;;12.76;75.20
53719;BME280;39616;48.872;9.390;2023-10-08T00:58:34;99141.03;;;12.85;75.57
53719;BME280;39616;48.872;9.390;2023-10-08T01:01:04;99134.56;;;12.80;75.81
53719;BME280;39616;48.872;9.390;2023-10-08T01:03:40;99135.44;;;12.76;75.96
53719;BME280;39616;48.872;9.390;2023-10-08T01:06:14;99135.09;;;12.58;79.16
53719;BME280;39616;48.872;9.390;2023-10-08T01:08:48;99130.84;;;12.47;81.11
53719;BME280;39616;48.872;9.390;2023-10-08T01:11:23;99138.72;;;12.25;83.47
53719;BME280;39616;48.872;9.390;2023-10-08T01:14:16;99137.53;;;12.07;85.44
53719;BME280;39616;48.872;9.390;2023-10-08T01:16:51;99134.31;;;12.00;87.40
53719;BME280;39616;48.872;9.390;2023-10-08T01:19:21;99138.22;;;11.89;86.54
53719;BME280;39616;48.872;9.390;2023-10-08T01:21:51;99144.47;;;11.89;86.52
53719;BME280;39616;48.872;9.390;2023-10-08T01:24:22;99149.16;;;11.83;87.04
53719;BME280;39616;48.872;9.390;2023-10-08T01:26:54;99135.84;;;11.77;87.39
53719;BME280;39616;48.872;9.390;2023-10-08T01:29:24;99138.88;;;11.75;88.34
53719;BME280;39616;48.872;9.390;2023-10-08T01:31:58;99148.44;;;11.68;89.51
53719;BME280;39616;48.872;9.390;2023-10-08T01:34:28;99146.00;;;11.66;89.80
53719;BME280;39616;48.872;9.390;2023-10-08T01:37:05;99147.63;;;11.67;90.25
53719;BME280;39616;48.872;9.390;2023-10-08T01:39:39;99145.47;;;11.64;90.29
53719;BME280;39616;48.872;9.390;2023-10-08T01:42:12;99146.03;;;11.61;90.80
53719;BME280;39616;48.872;9.390;2023-10-08T01:44:50;99145.25;;;11.55;91.91
53719;BME280;39616;48.872;9.390;2023-10-08T01:47:21;99148.81;;;11.51;93.77
53719;BME280;39616;48.872;9.390;2023-10-08T01:49:55;99145.34;;;11.45;94.53
53719;BME280;39616;48.872;9.390;2023-10-08T01:52:35;99140.22;;;11.39;93.79
53719;BME280;39616;48.872;9.390;2023-10-08T01:55:05;99145.41;;;11.30;96.15
53719;BME280;39616;48.872;9.390;2023-10-08T01:57:40;99155.22;;;11.26;96.46
53719;BME280;39616;48.872;9.390;2023-10-08T02:00:13;99154.72;;;11.19;98.80
53719;BME280;39616;48.872;9.390;2023-10-08T02:02:50;99146.91;;;11.07;99.68
53719;BME280;39616;48.872;9.390;2023-10-08T02:05:20;99162.69;;;11.00;100.00
53719;BME280;39616;48.872;9.390;2023-10-08T02:07:51;99156.22;;;10.91;100.00
53719;BME280;39616;48.872;9.390;2023-10-08T02:10:21;99155.97;;;10.87;100.00
53719;BME280;39616;48.872;9.390;2023-10-08T02:12:52;99153.00;;;10.78;100.00
53719;BME280;39616;48.872;9.390;2023-10-08T02:15:22;99152.22;;;10.73;100.00
53719;BME280;39616;48.872;9.390;2023-10-08T02:17:53;99148.72;;;10.67;100.00
53719;BME280;39616;48.872;9.390;2023-10-08T02:20:24;99160.41;;;10.57;100.00
53719;BME280;39616;48.872;9.390;2023-10-08T02:22:56;99151.22;;;10.53;100.00
53719;BME280;39616;48.872;9.390;2023-10-08T02:25:26;99153.41;;;10.46;100.00
53719;BME280;39616;48.872;9.390;2023-10-08T02:27:57;99150.16;;;10.39;100.00
53719;BME280;39616;48.872;9.390;2023-10-08T02:30:27;99147.19;;;10.46;100.00
53719;BME280;39616;48.872;9.390;2023-10-08T02:32:58;99157.50;;;10.38;100.00
53719;BME280;39616;48.872;9.390;2023-10-08T02:35:28;99152.34;;;10.32;100.00
53719;BME280;39616;48.872;9.390;2023-10-08T02:37:58;99159.13;;;10.29;100.00
53719;BME280;39616;48.872;9.390;2023-10-08T02:40:29;99156.94;;;10.26;100.00
53719;BME280;39616;48.872;9.390;2023-10-08T02:43:00;99153.94;;;10.23;100.00
53719;BME280;39616;48.872;9.390;2023-10-08T02:45:30;99150.97;;;10.24;100.00
53719;BME280;39616;48.872;9.390;2023-10-08T02:48:01;99145.28;;;10.21;100.00
53719;BME280;39616;48.872;9.390;2023-10-08T02:50:31;99154.50;;;10.14;100.00
53719;BME280;39616;48.872;9.390;2023-10-08T02:53:03;99148.00;;;10.15;100.00
53719;BME280;39616;48.872;9.390;2023-10-08T02:55:41;99137.47;;;10.09;100.00
53719;BME280;39616;48.872;9.390;2023-10-08T02:58:14;99139.63;;;10.02;100.00
53719;BME280;39616;48.872;9.390;2023-10-08T03:00:46;99144.22;;;10.01;100.00
53719;BME280;39616;48.872;9.390;2023-10-08T03:03:17;99145.03;;;9.97;100.00
53719;BME280;39616;48.872;9.390;2023-10-08T03:05:54;99134.22;;;9.91;100.00
53719;BME280;39616;48.872;9.390;2023-10-08T03:08:27;99138.00;;;9.85;100.00
53719;BME280;39616;48.872;9.390;2023-10-08T03:11:01;99138.81;;;9.86;100.00
53719;BME280;39616;48.872;9.390;2023-10-08T03:13:34;99138.28;;;9.84;100.00
53719;BME280;39616;48.872;9.390;2023-10-08T03:16:12;99135.56;;;9.84;100.00
53719;BME280;39616;48.872;9.390;2023-10-08T03:18:43;99131.50;;;9.81;100.00
53719;BME280;39616;48.872;9.390;2023-10-08T03:21:15;99136.94;;;9.81;100.00
53719;BME280;39616;48.872;9.390;2023-10-08T03:24:03;99130.16;;;9.79;100.00
53719;BME280;39616;48.872;9.390;2023-10-08T03:26:53;99142.63;;;9.80;100.00
53719;BME280;39616;48.872;9.390;2023-10-08T03:29:25;99136.38;;;9.79;100.00
53719;BME280;39616;48.872;9.390;2023-10-08T03:32:00;99136.09;;;9.71;100.00
53719;BME280;39616;48.872;9.390;2023-10-08T03:34:36;99138.00;;;9.70;100.00
53719;BME280;39616;48.872;9.390;2023-10-08T03:37:07;99142.06;;;9.67;100.00
53719;BME280;39616;48.872;9.390;2023-10-08T03:39:37;99148.84;;;9.65;100.00
53719;BME280;39616;48.872;9.390;2023-10-08T03:42:31;99147.75;;;9.66;100.00
53719;BME280;39616;48.872;9.390;2023-10-08T03:45:05;99162.13;;;9.61;100.00
53719;BME280;39616;48.872;9.390;2023-10-08T03:47:42;99163.47;;;9.59;100.00
53719;BME280;39616;48.872;9.390;2023-10-08T03:50:16;99167.25;;;9.58;100.00
53719;BME280;39616;48.872;9.390;2023-10-08T03:52:47;99180.00;;;9.57;100.00
53719;BME280;39616;48.872;9.390;2023-10-08T03:55:19;99171.59;;;9.54;100.00
53719;BME280;39616;48.872;9.390;2023-10-08T03:57:49;99171.03;;;9.52;100.00
53719;BME280;39616;48.872;9.390;2023-10-08T04:00:27;99165.09;;;9.55;100.00
53719;BME280;39616;48.872;9.390;2023-10-08T04:03:01;99159.66;;;9.50;100.00
53719;BME280;39616;48.872;9.390;2023-10-08T04:05:38;99161.56;;;9.54;100.00
53719;BME280;39616;48.872;9.390;2023-10-08T04:08:27;99156.13;;;9.44;100.00
53719;BME280;39616;48.872;9.390;2023-10-08T04:11:28;99152.59;;;9.38;100.00
53719;BME280;39616;48.872;9.390;2023-10-08T04:14:02;99142.28;;;9.30;100.00
53719;BME280;39616;48.872;9.390;2023-10-08T04:16:33;99143.09;;;9.26;100.00
53719;BME280;39616;48.872;9.390;2023-10-08T04:19:07;99135.53;;;9.23;100.00
53719;BME280;39616;48.872;9.390;2023-10-08T04:21:38;99134.72;;;9.17;100.00
53719;BME280;39616;48.872;9.390;2023-10-08T04:24:12;99127.66;;;9.16;100.00
53719;BME280;39616;48.872;9.390;2023-10-08T04:26:44;99124.94;;;9.16;100.00
53719;BME280;39616;48.872;9.390;2023-10-08T04:29:15;99120.09;;;9.18;100.00
53719;BME280;39616;48.872;9.390;2023-10-08T04:31:46;99124.69;;;9.23;100.00
53719;BME280;39616;48.872;9.390;2023-10-08T04:34:24;99129.81;;;9.24;100.00
53719;BME280;39616;48.872;9.390;2023-10-08T04:36:56;99131.44;;;9.20;100.00
53719;BME280;39616;48.872;9.390;2023-10-08T04:39:34;99133.63;;;9.18;100.00
53719;BME280;39616;48.872;9.390;2023-10-08T04:42:05;99134.72;;;9.17;100.00
53719;BME280;39616;48.872;9.390;2023-10-08T04:44:41;99141.19;;;9.16;100.00
53719;BME280;39616;48.872;9.390;2023-10-08T04:47:11;99134.16;;;9.15;100.00
53719;BME280;39616;48.872;9.390;2023-10-08T04:50:01;99128.47;;;9.16;100.00
53719;BME280;39616;48.872;9.390;2023-10-08T04:52:34;99121.72;;;9.19;100.00
53719;BME280;39616;48.872;9.390;2023-10-08T04:55:15;99130.09;;;9.23;100.00
53719;BME280;39616;48.872;9.390;2023-10-08T04:57:50;99123.34;;;9.25;100.00
53719;BME280;39616;48.872;9.390;2023-10-08T05:00:21;99122.25;;;9.21;100.00
53719;BME280;39616;48.872;9.390;2023-10-08T05:03:11;99126.59;;;9.22;100.00
53719;BME280;39616;48.872;9.390;2023-10-08T05:05:44;99133.38;;;9.25;100.00
53719;BME280;39616;48.872;9.390;2023-10-08T05:08:25;99136.88;;;9.25;100.00
53719;BME280;39616;48.872;9.390;2023-10-08T05:11:14;99146.91;;;9.25;100.00
53719;BME280;39616;48.872;9.390;2023-10-08T05:13:54;99144.97;;;9.20;100.00
53719;BME280;39616;48.872;9.390;2023-10-08T05:16:46;99155.56;;;9.22;100.00
53719;BME280;39616;48.872;9.390;2023-10-08T05:19:30;99162.31;;;9.24;100.00
53719;BME280;39616;48.872;9.390;2023-10-08T05:22:11;99162.06;;;9.26;100.00
53719;BME280;39616;48.872;9.390;2023-10-08T05:24:59;99156.63;;;9.26;100.00
53719;BME280;39616;48.872;9.390;2023-10-08T05:27:48;99164.47;;;9.27;100.00
53719;BME280;39616;48.872;9.390;2023-10-08T05:30:27;99166.38;;;9.27;100.00
53719;BME280;39616;48.872;9.390;2023-10-08T05:33:23;99157.72;;;9.25;100.00
53719;BME280;39616;48.872;9.390;2023-10-08T05:35:58;99152.03;;;9.26;100.00
53719;BME280;39616;48.872;9.390;2023-10-08T05:38:40;99153.13;;;9.25;100.00
53719;BME280;39616;48.872;9.390;2023-10-08T05:41:19;99161.50;;;9.24;100.00
53719;BME280;39616;48.872;9.390;2023-10-08T05:43:58;99164.47;;;9.22;100.00
53719;BME280;39616;48.872;9.390;2023-10-08T05:46:46;99168.81;;;9.23;100.00
53719;BME280;39616;48.872;9.390;2023-10-08T05:49:19;99168.56;;;9.25;100.00
53719;BME280;39616;48.872;9.390;2023-10-08T05:52:02;99169.34;;;9.25;100.00
53719;BME280;39616;48.872;9.390;2023-10-08T05:54:32;99172.59;;;9.27;100.00
53719;BME280;39616;48.872;9.390;2023-10-08T05:57:04;99168.00;;;9.28;100.00
53719;BME280;39616;48.872;9.390;2023-10-08T05:59:43;99174.25;;;9.33;100.00
53719;BME280;39616;48.872;9.390;2023-10-08T06:02:42;99167.50;;;9.41;100.00
53719;BME280;39616;48.872;9.390;2023-10-08T06:05:15;99175.59;;;9.46;100.00
53719;BME280;39616;48.872;9.390;2023-10-08T06:07:56;99164.53;;;9.53;100.00
53719;BME280;39616;48.872;9.390;2023-10-08T06:10:40;99160.47;;;9.60;100.00
53719;BME280;39616;48.872;9.390;2023-10-08T06:13:12;99160.22;;;9.67;100.00
53719;BME280;39616;48.872;9.390;2023-10-08T06:16:01;99160.47;;;9.71;100.00
53719;BME280;39616;48.872;9.390;2023-10-08T06:18:33;99162.41;;;9.80;100.00
53719;BME280;39616;48.872;9.390;2023-10-08T06:21:05;99156.72;;;9.87;100.00
53719;BME280;39616;48.872;9.390;2023-10-08T06:23:39;99154.28;;;9.90;100.00
53719;BME280;39616;48.872;9.390;2023-10-08T06:26:12;99149.09;;;9.94;100.00
53719;BME280;39616;48.872;9.390;2023-10-08T06:28:44;99160.22;;;10.03;100.00
53719;BME280;39616;48.872;9.390;2023-10-08T06:31:14;99163.72;;;10.08;100.00
53719;BME280;39616;48.872;9.390;2023-10-08T06:33:48;99156.13;;;10.15;100.00
53719;BME280;39616;48.872;9.390;2023-10-08T06:36:18;99159.66;;;10.21;100.00
53719;BME280;39616;48.872;9.390;2023-10-08T06:38:54;99160.19;;;10.33;100.00
53719;BME280;39616;48.872;9.390;2023-10-08T06:41:24;99157.19;;;10.45;100.00
53719;BME280;39616;48.872;9.390;2023-10-08T06:44:03;99168.03;;;10.45;100.00
53719;BME280;39616;48.872;9.390;2023-10-08T06:46:35;99167.47;;;10.58;100.00
53719;BME280;39616;48.872;9.390;2023-10-08T06:49:07;99162.56;;;10.66;100.00
53719;BME280;39616;48.872;9.390;2023-10-08T06:51:42;99169.88;;;10.75;100.00
53719;BME280;39616;48.872;9.390;2023-10-08T06:54:15;99182.81;;;10.88;100.00
53719;BME280;39616;48.872;9.390;2023-10-08T06:56:47;99183.34;;;10.96;99.30
53719;BME280;39616;48.872;9.390;2023-10-08T06:59:22;99178.63;;;11.11;100.00
53719;BME280;39616;48.872;9.390;2023-10-08T07:01:55;99189.50;;;11.17;99.03
53719;BME280;39616;48.872;9.390;2023-10-08T07:04:26;99186.97;;;11.30;98.55
53719;BME280;39616;48.872;9.390;2023-10-08T07:06:57;99203.44;;;11.44;96.05
53719;BME280;39616;48.872;9.390;2023-10-08T07:09:29;99205.88;;;11.51;94.87
53719;BME280;39616;48.872;9.390;2023-10-08T07:12:00;99207.47;;;11.57;93.98
53719;BME280;39616;48.872;9.390;2023-10-08T07:14:35;99210.06;;;11.72;94.53
53719;BME280;39616;48.872;9.390;2023-10-08T07:17:06;99207.59;;;11.76;93.48
53719;BME280;39616;48.872;9.390;2023-10-08T07:19:38;99201.84;;;11.82;92.40
53719;BME280;39616;48.872;9.390;2023-10-08T07:22:10;99203.44;;;11.89;92.24
53719;BME280;39616;48.872;9.390;2023-10-08T07:24:52;99203.56;;;12.07;92.87
53719;BME280;39616;48.872;9.390;2023-10-08T07:27:25;99201.00;;;12.21;94.37
53719;BME280;39616;48.872;9.390;2023-10-08T07:30:02;99196.28;;;12.32;89.28
53719;BME280;39616;48.872;9.390;2023-10-08T07:32:40;99192.84;;;12.50;88.46
53719;BME280;39616;48.872;9.390;2023-10-08T07:35:10;99202.88;;;12.55;87.69
53719;BME280;39616;48.872;9.390;2023-10-08T07:37:55;99200.09;;;12.60;88.11
53719;BME280;39616;48.872;9.390;2023-10-08T07:40:28;99203.81;;;12.69;87.66
53719;BME280;39616;48.872;9.390;2023-10-08T07:43:01;99204.00;;;12.78;87.87
53719;BME280;39616;48.872;9.390;2023-10-08T07:45:38;99199.84;;;12.86;88.16
53719;BME280;39616;48.872;9.390;2023-10-08T07:48:08;99194.47;;;12.99;87.75
53719;BME280;39616;48.872;9.390;2023-10-08T07:50:44;99178.25;;;13.13;86.44
53719;BME280;39616;48.872;9.390;2023-10-08T07:53:15;99160.78;;;13.14;86.94
53719;BME280;39616;48.872;9.390;2023-10-08T07:55:49;99170.38;;;13.12;88.17
53719;BME280;39616;48.872;9.390;2023-10-08T07:58:19;99170.88;;;13.14;88.14
53719;BME280;39616;48.872;9.390;2023-10-08T08:00:50;99177.56;;;13.02;88.50
53719;BME280;39616;48.872;9.390;2023-10-08T08:03:24;99189.03;;;13.23;87.16
53719;BME280;39616;48.872;9.390;2023-10-08T08:05:55;99213.66;;;13.37;86.69
53719;BME280;39616;48.872;9.390;2023-10-08T08:08:25;99218.31;;;13.56;85.17
53719;BME280;39616;48.872;9.390;2023-10-08T08:10:57;99231.94;;;13.74;83.78
53719;BME280;39616;48.872;9.390;2023-10-08T08:13:34;99244.50;;;14.08;81.82
53719;BME280;39616;48.872;9.390;2023-10-08T08:16:05;99243.69;;;14.59;79.84
53719;BME280;39616;48.872;9.390;2023-10-08T08:18:51;99233.28;;;15.30;77.74
53719;BME280;39616;48.872;9.390;2023-10-08T08:21:29;99234.47;;;16.24;72.89
53719;BME280;39616;48.872;9.390;2023-10-08T08:24:00;99238.81;;;16.79;73.70
53719;BME280;39616;48.872;9.390;2023-10-08T08:26:38;99230.81;;;16.91;70.39
53719;BME280;39616;48.872;9.390;2023-10-08T08:29:31;99229.38;;;17.51;69.70
53719;BME280;39616;48.872;9.390;2023-10-08T08:32:06;99240.56;;;18.24;66.62
53719;BME280;39616;48.872;9.390;2023-10-08T08:34:38;99241.75;;;18.70;62.91
53719;BME280;39616;48.872;9.390;2023-10-08T08:37:13;99249.78;;;19.01;60.28
53719;BME280;39616;48.872;9.390;2023-10-08T08:39:44;99260.00;;;19.21;59.00
53719;BME280;39616;48.872;9.390;2023-10-08T08:42:17;99267.22;;;19.94;57.14
53719;BME280;39616;48.872;9.390;2023-10-08T08:44:52;99267.97;;;20.03;56.68
53719;BME280;39616;48.872;9.390;2023-10-08T08:47:25;99269.78;;;20.53;56.60
53719;BME280;39616;48.872;9.390;2023-10-08T08:49:58;99256.56;;;20.92;55.45
53719;BME280;39616;48.872;9.390;2023-10-08T08:52:39;99266.69;;;21.00;53.30
53719;BME280;39616;48.872;9.390;2023-10-08T08:55:09;99255.59;;;21.33;52.98
53719;BME280;39616;48.872;9.390;2023-10-08T08:57:47;99251.41;;;21.76;52.71
53719;BME280;39616;48.872;9.390;2023-10-08T09:00:19;99246.25;;;22.03;50.38
53719;BME280;39616;48.872;9.390;2023-10-08T09:02:49;99248.31;;;22.18;51.46
53719;BME280;39616;48.872;9.390;2023-10-08T09:05:20;99249.81;;;22.43;50.98
53719;BME280;39616;48.872;9.390;2023-10-08T09:07:56;99237.09;;;22.86;52.26
53719;BME280;39616;48.872;9.390;2023-10-08T09:10:26;99243.13;;;23.20;49.79
53719;BME280;39616;48.872;9.390;2023-10-08T09:12:59;99255.66;;;22.86;49.28
53719;BME280;39616;48.872;9.390;2023-10-08T09:15:30;99248.53;;;22.85;50.39
53719;BME280;39616;48.872;9.390;2023-10-08T09:18:02;99257.69;;;22.57;48.38
53719;BME280;39616;48.872;9.390;2023-10-08T09:20:37;99266.03;;;22.05;48.98
53719;BME280;39616;48.872;9.390;2023-10-08T09:23:15;99253.75;;;22.42;49.30
53719;BME280;39616;48.872;9.390;2023-10-08T09:25:47;99250.72;;;22.48;49.57
53719;BME280;39616;48.872;9.390;2023-10-08T09:28:24;99259.28;;;22.02;50.34
53719;BME280;39616;48.872;9.390;2023-10-08T09:30:55;99264.78;;;21.37;51.29
53719;BME280;39616;48.872;9.390;2023-10-08T09:33:28;99254.63;;;21.66;51.45
53719;BME280;39616;48.872;9.390;2023-10-08T09:35:59;99258.81;;;21.48;51.77
53719;BME280;39616;48.872;9.390;2023-10-08T09:38:33;99259.94;;;21.59;53.45
53719;BME280;39616;48.872;9.390;2023-10-08T09:41:03;99255.00;;;21.40;55.28
53719;BME280;39616;48.872;9.390;2023-10-08T09:43:34;99259.09;;;20.85;54.96
53719;BME280;39616;48.872;9.390;2023-10-08T09:46:13;99260.81;;;20.23;55.25
53719;BME280;39616;48.872;9.390;2023-10-08T09:48:50;99258.91;;;20.36;56.19
53719;BME280;39616;48.872;9.390;2023-10-08T09:51:23;99252.59;;;20.35;55.81
53719;BME280;39616;48.872;9.390;2023-10-08T09:54:05;99270.63;;;20.12;56.70
53719;BME280;39616;48.872;9.390;2023-10-08T09:56:40;99252.59;;;20.35;56.62
53719;BME280;39616;48.872;9.390;2023-10-08T09:59:11;99257.66;;;20.33;56.60
53719;BME280;39616;48.872;9.390;2023-10-08T10:01:45;99262.03;;;20.13;57.21
53719;BME280;39616;48.872;9.390;2023-10-08T10:04:23;99254.22;;;20.36;57.74
53719;BME280;39616;48.872;9.390;2023-10-08T10:06:57;99272.50;;;20.20;57.67
53719;BME280;39616;48.872;9.390;2023-10-08T10:09:28;99273.59;;;20.40;57.38
53719;BME280;39616;48.872;9.390;2023-10-08T10:11:58;99285.16;;;20.00;58.12
53719;BME280;39616;48.872;9.390;2023-10-08T10:14:41;99289.94;;;20.24;58.13
53719;BME280;39616;48.872;9.390;2023-10-08T10:17:14;99289.28;;;20.27;57.54
53719;BME280;39616;48.872;9.390;2023-10-08T10:20:00;99295.38;;;20.54;57.70
53719;BME280;39616;48.872;9.390;2023-10-08T10:22:33;99297.38;;;20.65;57.11
53719;BME280;39616;48.872;9.390;2023-10-08T10:25:06;99281.28;;;21.01;58.23
53719;BME280;39616;48.872;9.390;2023-10-08T10:30:25;99278.34;;;20.72;57.46
53719;BME280;39616;48.872;9.390;2023-10-08T10:33:00;99288.59;;;20.84;56.79
53719;BME280;39616;48.872;9.390;2023-10-08T10:35:31;99274.84;;;20.96;59.33
53719;BME280;39616;48.872;9.390;2023-10-08T10:38:04;99273.22;;;20.95;57.98
53719;BME280;39616;48.872;9.390;2023-10-08T10:40:36;99285.59;;;20.77;57.51
53719;BME280;39616;48.872;9.390;2023-10-08T10:43:09;99267.84;;;20.99;57.17
53719;BME280;39616;48.872;9.390;2023-10-08T10:45:39;99268.16;;;20.97;56.60
53719;BME280;39616;48.872;9.390;2023-10-08T10:48:13;99277.72;;;21.12;60.32
53719;BME280;39616;48.872;9.390;2023-10-08T10:50:50;99271.53;;;21.03;58.21
53719;BME280;39616;48.872;9.390;2023-10-08T10:53:39;99275.94;;;20.71;57.34
53719;BME280;39616;48.872;9.390;2023-10-08T10:56:14;99268.19;;;20.52;57.46
53719;BME280;39616;48.872;9.390;2023-10-08T10:59:00;99264.91;;;20.83;56.88
53719;BME280;39616;48.872;9.390;2023-10-08T11:01:35;99259.44;;;20.95;56.04
53719;BME280;39616;48.872;9.390;2023-10-08T11:04:16;99259.84;;;21.43;55.28
53719;BME280;39616;48.872;9.390;2023-10-08T11:06:49;99259.75;;;21.92;54.10
53719;BME280;39616;48.872;9.390;2023-10-08T11:09:20;99268.03;;;21.92;53.91
53719;BME280;39616;48.872;9.390;2023-10-08T11:12:06;99263.72;;;22.19;52.89
53719;BME280;39616;48.872;9.390;2023-10-08T11:14:42;99257.03;;;22.20;52.16
53719;BME280;39616;48.872;9.390;2023-10-08T11:17:15;99258.50;;;22.58;54.71
53719;BME280;39616;48.872;9.390;2023-10-08T11:19:46;99242.78;;;23.06;51.86
53719;BME280;39616;48.872;9.390;2023-10-08T11:22:17;99248.91;;;23.15;51.42
53719;BME280;39616;48.872;9.390;2023-10-08T11:24:48;99242.25;;;23.51;49.61
53719;BME280;39616;48.872;9.390;2023-10-08T11:27:19;99238.66;;;23.82;50.24
53719;BME280;39616;48.872;9.390;2023-10-08T11:29:59;99237.25;;;23.73;49.54
53719;BME280;39616;48.872;9.390;2023-10-08T11:32:30;99235.97;;;23.19;50.35
53719;BME280;39616;48.872;9.390;2023-10-08T11:35:02;99234.34;;;22.86;50.68
53719;BME280;39616;48.872;9.390;2023-10-08T11:37:46;99230.19;;;22.93;50.76
53719;BME280;39616;48.872;9.390;2023-10-08T11:40:25;99224.66;;;22.49;51.35
53719;BME280;39616;48.872;9.390;2023-10-08T11:42:58;99225.75;;;22.44;51.42
53719;BME280;39616;48.872;9.390;2023-10-08T11:45:29;99218.75;;;23.10;50.38
53719;BME280;39616;48.872;9.390;2023-10-08T11:48:22;99213.06;;;23.03;49.90
53719;BME280;39616;48.872;9.390;2023-10-08T11:50:59;99215.44;;;23.71;49.76
53719;BME280;39616;48.872;9.390;2023-10-08T11:53:31;99211.84;;;23.86;49.90
53719;BME280;39616;48.872;9.390;2023-10-08T11:56:01;99216.88;;;23.65;49.28
53719;BME280;39616;48.872;9.390;2023-10-08T11:58:32;99204.88;;;23.42;49.90
53719;BME280;39616;48.872;9.390;2023-10-08T12:01:08;99203.72;;;23.43;49.51
53719;BME280;39616;48.872;9.390;2023-10-08T12:03:42;99208.63;;;23.33;51.81
53719;BME280;39616;48.872;9.390;2023-10-08T12:06:14;99204.47;;;22.76;51.14
53719;BME280;39616;48.872;9.390;2023-10-08T12:08:45;99196.44;;;22.71;50.88
53719;BME280;39616;48.872;9.390;2023-10-08T12:11:16;99191.88;;;22.63;50.56
53719;BME280;39616;48.872;9.390;2023-10-08T12:13:46;99181.19;;;23.25;49.95
53719;BME280;39616;48.872;9.390;2023-10-08T12:16:17;99177.00;;;23.15;49.51
53719;BME280;39616;48.872;9.390;2023-10-08T12:18:53;99172.00;;;23.21;49.78
53719;BME280;39616;48.872;9.390;2023-10-08T12:21:28;99163.25;;;23.54;49.13
53719;BME280;39616;48.872;9.390;2023-10-08T12:24:00;99163.59;;;23.68;49.93
53719;BME280;39616;48.872;9.390;2023-10-08T12:26:35;99160.06;;;24.10;48.36
53719;BME280;39616;48.872;9.390;2023-10-08T12:29:05;99153.59;;;23.83;47.51
53719;BME280;39616;48.872;9.390;2023-10-08T12:31:36;99150.81;;;24.02;48.69
53719;BME280;39616;48.872;9.390;2023-10-08T12:34:06;99146.91;;;24.46;48.25
53719;BME280;39616;48.872;9.390;2023-10-08T12:36:41;99159.84;;;24.61;47.14
53719;BME280;39616;48.872;9.390;2023-10-08T12:39:12;99168.13;;;24.38;47.22
53719;BME280;39616;48.872;9.390;2023-10-08T12:41:45;99167.97;;;24.31;46.83
53719;BME280;39616;48.872;9.390;2023-10-08T12:44:15;99165.00;;;24.20;49.37
53719;BME280;39616;48.872;9.390;2023-10-08T12:46:46;99166.34;;;24.30;47.46
53719;BME280;39616;48.872;9.390;2023-10-08T12:49:18;99175.06;;;23.90;47.69
53719;BME280;39616;48.872;9.390;2023-10-08T12:51:51;99170.78;;;23.73;47.24
53719;BME280;39616;48.872;9.390;2023-10-08T12:54:22;99184.25;;;23.74;48.03
53719;BME280;39616;48.872;9.390;2023-10-08T12:56:57;99169.13;;;23.88;47.18
53719;BME280;39616;48.872;9.390;2023-10-08T12:59:28;99161.97;;;24.06;47.42
53719;BME280;39616;48.872;9.390;2023-10-08T13:02:00;99175.59;;;23.95;46.97
53719;BME280;39616;48.872;9.390;2023-10-08T13:04:37;99174.22;;;24.05;47.13
53719;BME280;39616;48.872;9.390;2023-10-08T13:07:11;99173.31;;;24.20;47.70
53719;BME280;39616;48.872;9.390;2023-10-08T13:09:42;99169.13;;;24.30;46.72
53719;BME280;39616;48.872;9.390;2023-10-08T13:12:13;99169.19;;;24.33;47.04
53719;BME280;39616;48.872;9.390;2023-10-08T13:14:45;99167.47;;;24.25;46.52
53719;BME280;39616;48.872;9.390;2023-10-08T13:17:15;99164.91;;;24.36;46.73
53719;BME280;39616;48.872;9.390;2023-10-08T13:19:45;99168.28;;;24.45;47.68
53719;BME280;39616;48.872;9.390;2023-10-08T13:22:16;99162.84;;;24.33;46.50
53719;BME280;39616;48.872;9.390;2023-10-08T13:24:49;99156.75;;;24.43;46.54
53719;BME280;39616;48.872;9.390;2023-10-08T13:27:20;99158.56;;;24.35;46.69
53719;BME280;39616;48.872;9.390;2023-10-08T13:29:50;99148.06;;;24.25;47.02
53719;BME280;39616;48.872;9.390;2023-10-08T13:32:22;99149.44;;;24.12;46.97
53719;BME280;39616;48.872;9.390;2023-10-08T13:34:53;99151.56;;;24.22;46.99
53719;BME280;39616;48.872;9.390;2023-10-08T13:37:23;99146.34;;;24.17;46.90
53719;BME280;39616;48.872;9.390;2023-10-08T13:39:54;99157.34;;;24.14;47.43
53719;BME280;39616;48.872;9.390;2023-10-08T13:42:24;99152.81;;;23.82;47.78